Flight Track Log - Related Links

Times and Time Zones

All times are in EDT time to prevent confusion due to time zone crossing. See the MSR962 flight status page for this flight to view local times or setup timezone preferences in your user account.

Time Position Orientation Groundspeed Altitude Reporting Facility
EDT Latitude Longitude Course Direction KTS MPH feet Rate Location/Type
Sat 05:53:00 PM 30.9211 32.6842 54° Northeast  Level Estimated
Sat 05:54:00 PM 30.9932 32.8015 54° Northeast  Level Estimated
Sat 05:55:00 PM 31.0651 32.9190 54° Northeast  Level Estimated
Sat 05:56:00 PM 31.1369 33.0366 54° Northeast  Level Estimated
Sat 05:57:00 PM 31.2086 33.1545 55° Northeast  Level Estimated
Sat 05:58:00 PM 31.2802 33.2725 55° Northeast  Level Estimated
Sat 05:59:00 PM 31.3517 33.3907 55° Northeast  Level Estimated
Sat 06:00:00 PM 31.4231 33.5090 55° Northeast  Level Estimated
Sat 06:01:00 PM 31.4944 33.6275 55° Northeast  Level Estimated
Sat 06:02:00 PM 31.5655 33.7463 55° Northeast  Level Estimated
Sat 06:03:00 PM 31.6366 33.8652 55° Northeast  Level Estimated
Sat 06:04:00 PM 31.7076 33.9843 55° Northeast  Level Estimated
Sat 06:05:00 PM 31.7784 34.1035 55° Northeast  Level Estimated
Sat 06:06:00 PM 31.8491 34.2230 55° Northeast  Level Estimated
Sat 06:07:00 PM 31.9197 34.3426 55° Northeast  Level Estimated
Sat 06:08:00 PM 31.9902 34.4624 55° Northeast  Level Estimated
Sat 06:09:00 PM 32.0606 34.5824 55° Northeast  Level Estimated
Sat 06:09:57 PM 32.6460 32.2310 55° Northeast 464 534 31,900  Level FlightAware ADS-B
Sat 06:10:00 PM 32.1309 34.7026 55° Northeast  Level Estimated
Sat 06:11:00 PM 32.2010 34.8230 55° Northeast  Level Estimated
Sat 06:11:07 PM 32.7510 32.3680 48° Northeast 458 527 32,600  Level FlightAware ADS-B
Sat 06:11:47 PM 32.8070 32.4420 48° Northeast 462 532 33,000 300 Climbing FlightAware ADS-B
Sat 06:12:27 PM 32.8640 32.5150 47° Northeast 458 527 33,000 212 Level FlightAware ADS-B
Sat 06:13:12 PM 32.9330 32.6060 48° Northeast 463 533 33,300 867 Climbing FlightAware ADS-B
Sat 06:13:57 PM 32.9940 32.6870 48° Northeast 459 528 34,300 1,059 Climbing FlightAware ADS-B
Sat 06:14:37 PM 33.0550 32.7670 48° Northeast 464 534 34,800 975 Climbing FlightAware ADS-B
Sat 06:15:17 PM 33.1110 32.8420 48° Northeast 459 528 35,600 1,129 Climbing FlightAware ADS-B
Sat 06:16:02 PM 33.1760 32.9290 48° Northeast 456 525 36,400 847 Climbing FlightAware ADS-B
Sat 06:16:42 PM 33.2330 33.0040 48° Northeast 459 528 36,800 494 Climbing FlightAware ADS-B
Sat 06:17:27 PM 33.2980 33.0900 48° Northeast 466 536 37,100 424 Climbing FlightAware ADS-B
Sat 06:18:07 PM 33.3550 33.1660 48° Northeast 464 534 37,400 432 Climbing FlightAware ADS-B
Sat 06:19:32 PM 33.4740 33.3270 48° Northeast 467 537 38,000 277 Climbing FlightAware ADS-B
Sat 06:20:17 PM 33.5400 33.4150 48° Northeast 465 535 38,000  Level FlightAware ADS-B
Sat 06:20:57 PM 33.5980 33.4930 48° Northeast 464 534 38,000  Level FlightAware ADS-B
Sat 06:21:37 PM 33.6580 33.5740 48° Northeast 468 539 38,000  Level FlightAware ADS-B
Sat 06:22:22 PM 33.7230 33.6620 48° Northeast 468 539 38,000  Level FlightAware ADS-B
Sat 06:23:02 PM 33.7800 33.7400 49° Northeast 467 537 38,000  Level FlightAware ADS-B
Sat 06:23:47 PM 33.8430 33.8250 48° Northeast 466 536 38,000  Level FlightAware ADS-B
Sat 06:24:27 PM 33.9000 33.9040 49° Northeast 465 535 38,000  Level FlightAware ADS-B
Sat 06:25:07 PM 33.9570 33.9820 49° Northeast 464 534 38,000  Level FlightAware ADS-B
Sat 06:25:52 PM 34.0210 34.0700 49° Northeast 462 532 38,000  Level FlightAware ADS-B
Sat 06:26:32 PM 34.0780 34.1480 49° Northeast 460 529 38,000  Level FlightAware ADS-B
Sat 06:27:12 PM 34.1330 34.2240 49° Northeast 455 524 38,000  Level FlightAware ADS-B
Sat 06:27:57 PM 34.1970 34.3120 49° Northeast 454 522 38,000  Level FlightAware ADS-B
Sat 06:28:37 PM 34.2510 34.3870 49° Northeast 451 519 38,000  Level FlightAware ADS-B
Sat 06:29:22 PM 34.3120 34.4710 49° Northeast 451 519 38,000  Level FlightAware ADS-B
Sat 06:30:02 PM 34.3660 34.5470 49° Northeast 449 517 38,000  Level FlightAware ADS-B
Sat 06:30:42 PM 34.4230 34.6250 48° Northeast 450 518 38,000  Level FlightAware ADS-B
Sat 06:31:27 PM 34.4830 34.7090 49° Northeast 450 518 38,000  Level FlightAware ADS-B
Sat 06:32:07 PM 34.5390 34.7870 49° Northeast 450 518 38,000  Level FlightAware ADS-B
Sat 06:32:47 PM 34.5930 34.8630 49° Northeast 453 521 38,000  Level FlightAware ADS-B
Sat 06:33:32 PM 34.6530 34.9480 49° Northeast 450 518 38,000  Level FlightAware ADS-B
Sat 06:34:27 PM 34.7240 35.0470 49° Northeast 452 520 38,000  Level FlightAware ADS-B
Sat 06:35:07 PM 34.7700 35.1120 49° Northeast 452 520 38,000  Level FlightAware ADS-B
Sat 06:35:52 PM 34.8460 35.2200 49° Northeast 453 521 38,000  Level FlightAware ADS-B
Sat 06:36:27 PM 34.8880 35.2800 50° Northeast 453 521 38,000  Level FlightAware ADS-B
Sat 06:37:17 PM 34.9470 35.3620 49° Northeast 453 521 38,000  Level FlightAware ADS-B
Sat 06:37:57 PM 34.9930 35.4270 49° Northeast 453 521 38,000  Level FlightAware ADS-B
Sat 06:38:37 PM 35.0400 35.4930 49° Northeast 453 521 38,000  Level FlightAware ADS-B
Sat 06:39:17 PM 35.0870 35.5590 49° Northeast 453 521 38,000  Level FlightAware ADS-B
Sat 06:39:57 PM 35.1340 35.6240 49° Northeast 453 521 38,000  Level FlightAware ADS-B
Sat 06:40:47 PM 35.1920 35.7070 49° Northeast 453 521 38,000  Level FlightAware ADS-B
Sat 06:41:27 PM 35.2390 35.7720 48° Northeast 453 521 38,000  Level FlightAware ADS-B
Sat 06:42:07 PM 35.2860 35.8380 49° Northeast 453 521 38,000  Level FlightAware ADS-B
Sat 06:42:47 PM 35.3320 35.9040 49° Northeast 453 521 38,000  Level FlightAware ADS-B
Sat 06:43:27 PM 35.3790 35.9700 49° Northeast 453 521 38,000  Level FlightAware ADS-B
Sat 06:44:07 PM 35.4260 36.0360 49° Northeast 453 521 38,000  Level FlightAware ADS-B
Sat 06:44:57 PM 35.4840 36.1190 49° Northeast 453 521 38,000  Level FlightAware ADS-B
Sat 06:45:37 PM 35.5310 36.1850 49° Northeast 453 521 38,000 Level FlightAware ADS-B
Sat 06:48:00 PM 35.6926 36.4883 57° Northeast  Level Estimated
Sat 06:49:00 PM 35.7602 36.6160 57° Northeast  Level Estimated
Sat 06:50:00 PM 35.8276 36.7439 57° Northeast  Level Estimated
Sat 06:51:00 PM 35.8950 36.8719 57° Northeast  Level Estimated
Sat 06:52:00 PM 35.9621 37.0002 57° Northeast  Level Estimated
Sat 06:53:00 PM 36.0292 37.1288 57° Northeast  Level Estimated
Sat 06:54:00 PM 36.0961 37.2575 57° Northeast  Level Estimated
Sat 06:55:00 PM 36.1628 37.3865 57° Northeast  Level Estimated
Sat 06:56:00 PM 36.2294 37.5156 57° Northeast  Level Estimated
Sat 06:57:00 PM 36.2959 37.6450 57° Northeast  Level Estimated
Sat 06:58:00 PM 36.3623 37.7746 58° Northeast  Level Estimated
Sat 06:59:00 PM 36.4285 37.9045 58° Northeast  Level Estimated
Sat 07:00:00 PM 36.4945 38.0345 58° Northeast  Level Estimated
Sat 07:01:00 PM 36.5604 38.1648 58° Northeast  Level Estimated
Sat 07:02:00 PM 36.6262 38.2953 58° Northeast  Level Estimated
Sat 07:03:00 PM 36.6919 38.4260 58° Northeast  Level Estimated
Sat 07:04:00 PM 36.7574 38.5570 58° Northeast  Level Estimated
Sat 07:05:00 PM 36.8227 38.6881 58° Northeast  Level Estimated
Sat 07:06:00 PM 36.8879 38.8195 58° Northeast  Level Estimated
Sat 07:07:00 PM 36.9530 38.9511 58° Northeast  Level Estimated
Sat 07:08:00 PM 37.0179 39.0830 58° Northeast  Level Estimated
Sat 07:09:00 PM 37.0827 39.2151 58° Northeast  Level Estimated
Sat 07:10:00 PM 37.1473 39.3474 58° Northeast  Level Estimated
Sat 07:11:00 PM 37.2118 39.4799 59° Northeast  Level Estimated
Sat 07:12:00 PM 37.2761 39.6126 59° Northeast  Level Estimated
Sat 07:13:00 PM 37.3403 39.7456 59° Northeast  Level Estimated
Sat 07:14:00 PM 37.4043 39.8788 59° Northeast  Level Estimated
Sat 07:15:00 PM 37.4682 40.0122 59° Northeast  Level Estimated
Sat 07:16:00 PM 37.5319 40.1459 59° Northeast  Level Estimated
Sat 07:17:00 PM 37.5955 40.2798 59° Northeast  Level Estimated
Sat 07:18:00 PM 37.6589 40.4139 59° Northeast  Level Estimated
Sat 07:19:00 PM 37.7222 40.5482 59° Northeast  Level Estimated
Sat 07:20:00 PM 37.7853 40.6828 59° Northeast  Level Estimated
Sat 07:21:00 PM 37.8483 40.8176 59° Northeast  Level Estimated
Sat 07:22:00 PM 37.9111 40.9526 59° Northeast  Level Estimated
Sat 07:23:00 PM 37.9738 41.0879 60° Northeast  Level Estimated
Sat 07:24:00 PM 38.0363 41.2234 60° Northeast  Level Estimated
Sat 07:25:00 PM 38.0986 41.3591 60° Northeast  Level Estimated
Sat 07:26:00 PM 38.1608 41.4950 60° Northeast  Level Estimated
Sat 07:27:00 PM 38.2229 41.6312 60° Northeast  Level Estimated
Sat 07:28:00 PM 38.2847 41.7677 60° Northeast  Level Estimated
Sat 07:29:00 PM 38.3465 41.9043 60° Northeast  Level Estimated
Sat 07:30:00 PM 38.4080 42.0412 60° Northeast  Level Estimated
Sat 07:31:00 PM 38.4694 42.1783 60° Northeast  Level Estimated
Sat 07:32:00 PM 38.5307 42.3157 60° Northeast  Level Estimated
Sat 07:33:00 PM 38.5917 42.4533 60° Northeast  Level Estimated
Sat 07:34:00 PM 38.6527 42.5911 60° Northeast  Level Estimated
Sat 07:35:00 PM 38.7134 42.7291 61° Northeast  Level Estimated
Sat 07:36:00 PM 38.7740 42.8674 61° Northeast  Level Estimated
Sat 07:37:00 PM 38.8344 43.0059 61° Northeast  Level Estimated
Sat 07:38:00 PM 38.8947 43.1447 61° Northeast  Level Estimated
Sat 07:39:00 PM 38.9548 43.2837 61° Northeast  Level Estimated
Sat 07:40:00 PM 39.0148 43.4229 61° Northeast  Level Estimated
Sat 07:41:00 PM 39.0745 43.5624 61° Northeast  Level Estimated
Sat 07:42:00 PM 39.1341 43.7021 61° Northeast  Level Estimated
Sat 07:43:00 PM 39.1936 43.8420 61° Northeast  Level Estimated
Sat 07:44:00 PM 39.2528 43.9822 61° Northeast  Level Estimated
Sat 07:45:00 PM 39.3120 44.1226 61° Northeast  Level Estimated
Sat 07:46:00 PM 39.3709 44.2633 62° Northeast  Level Estimated
Sat 07:47:00 PM 39.4297 44.4041 62° Northeast  Level Estimated
Sat 07:48:00 PM 39.4883 44.5453 62° Northeast  Level Estimated
Sat 07:49:00 PM 39.5467 44.6866 62° Northeast  Level Estimated
Sat 07:50:00 PM 39.6049 44.8282 62° Northeast  Level Estimated
Sat 07:51:00 PM 39.6630 44.9701 62° Northeast  Level Estimated
Sat 07:52:00 PM 39.7209 45.1121 62° Northeast  Level Estimated
Sat 07:53:00 PM 39.7786 45.2545 62° Northeast  Level Estimated
Sat 07:54:00 PM 39.8362 45.3970 62° Northeast  Level Estimated
Sat 07:55:00 PM 39.8936 45.5398 62° Northeast  Level Estimated
Sat 07:56:00 PM 39.9508 45.6828 62° Northeast  Level Estimated
Sat 07:57:00 PM 40.0078 45.8261 63° Northeast  Level Estimated
Sat 07:58:00 PM 40.0647 45.9696 63° Northeast  Level Estimated
Sat 07:59:00 PM 40.1214 46.1134 63° Northeast  Level Estimated
Sat 08:00:00 PM 40.1779 46.2574 63° Northeast  Level Estimated
Sat 08:01:00 PM 40.2342 46.4016 63° Northeast  Level Estimated
Sat 08:02:00 PM 40.2903 46.5461 63° Northeast  Level Estimated
Sat 08:03:00 PM 40.3463 46.6908 63° Northeast  Level Estimated
Sat 08:04:00 PM 40.4021 46.8357 63° Northeast  Level Estimated
Sat 08:05:00 PM 40.4577 46.9809 63° Northeast  Level Estimated
Sat 08:06:00 PM 40.5131 47.1263 63° Northeast  Level Estimated
Sat 08:07:00 PM 40.5683 47.2720 63° Northeast  Level Estimated
Sat 08:08:00 PM 40.6234 47.4179 64° Northeast  Level Estimated
Sat 08:09:00 PM 40.6783 47.5641 64° Northeast  Level Estimated
Sat 08:10:00 PM 40.7329 47.7104 64° Northeast  Level Estimated
Sat 08:11:00 PM 40.7874 47.8571 64° Northeast  Level Estimated
Sat 08:12:00 PM 40.8418 48.0039 64° Northeast  Level Estimated
Sat 08:13:00 PM 40.8959 48.1511 64° Northeast  Level Estimated
Sat 08:14:00 PM 40.9498 48.2984 64° Northeast  Level Estimated
Sat 08:15:00 PM 41.0036 48.4460 64° Northeast  Level Estimated
Sat 08:16:00 PM 41.0571 48.5938 64° Northeast  Level Estimated
Sat 08:17:00 PM 41.1105 48.7419 64° Northeast  Level Estimated
Sat 08:18:00 PM 41.1637 48.8902 64° Northeast  Level Estimated
Sat 08:19:00 PM 41.2167 49.0388 65° Northeast  Level Estimated
Sat 08:20:00 PM 41.2695 49.1875 65° Northeast  Level Estimated
Sat 08:21:00 PM 41.3221 49.3366 65° Northeast  Level Estimated
Sat 08:22:00 PM 41.3745 49.4859 65° Northeast  Level Estimated
Sat 08:23:00 PM 41.4268 49.6354 65° Northeast  Level Estimated
Sat 08:24:00 PM 41.4788 49.7851 65° Northeast  Level Estimated
Sat 08:25:00 PM 41.5306 49.9351 65° Northeast  Level Estimated
Sat 08:26:00 PM 41.5823 50.0853 65° Northeast  Level Estimated
Sat 08:27:00 PM 41.6337 50.2358 65° Northeast  Level Estimated
Sat 08:28:00 PM 41.6850 50.3865 65° Northeast  Level Estimated
Sat 08:29:00 PM 41.7360 50.5375 66° East  Level Estimated
Sat 08:30:00 PM 41.7869 50.6886 66° East  Level Estimated
Sat 08:31:00 PM 41.8375 50.8401 66° East  Level Estimated
Sat 08:32:00 PM 41.8880 50.9917 66° East  Level Estimated
Sat 08:33:00 PM 41.9383 51.1437 66° East  Level Estimated
Sat 08:34:00 PM 41.9883 51.2958 66° East  Level Estimated
Sat 08:35:00 PM 42.0382 51.4482 66° East  Level Estimated
Sat 08:36:00 PM 42.0878 51.6008 66° East  Level Estimated
Sat 08:37:00 PM 42.1373 51.7537 66° East  Level Estimated
Sat 08:38:00 PM 42.1865 51.9068 66° East  Level Estimated
Sat 08:39:00 PM 42.2356 52.0602 67° East  Level Estimated
Sat 08:40:00 PM 42.2844 52.2137 67° East  Level Estimated
Sat 08:41:00 PM 42.3330 52.3675 67° East  Level Estimated
Sat 08:42:00 PM 42.3815 52.5216 67° East  Level Estimated
Sat 08:43:00 PM 42.4297 52.6759 67° East  Level Estimated
Sat 08:44:00 PM 42.4777 52.8304 67° East  Level Estimated
Sat 08:45:00 PM 42.5255 52.9852 67° East  Level Estimated
Sat 08:46:00 PM 42.5731 53.1402 67° East  Level Estimated
Sat 08:47:00 PM 42.6205 53.2955 67° East  Level Estimated
Sat 08:48:00 PM 42.6677 53.4509 68° East  Level Estimated
Sat 08:49:00 PM 42.7146 53.6067 68° East  Level Estimated
Sat 08:50:00 PM 42.7614 53.7626 68° East  Level Estimated
Sat 08:51:00 PM 42.8079 53.9188 68° East  Level Estimated
Sat 08:52:00 PM 42.8543 54.0752 68° East  Level Estimated
Sat 08:53:00 PM 42.9004 54.2318 68° East  Level Estimated
Sat 08:54:00 PM 42.9463 54.3887 68° East  Level Estimated
Sat 08:55:00 PM 42.9920 54.5459 68° East  Level Estimated
Sat 08:56:00 PM 43.0375 54.7032 68° East  Level Estimated
Sat 08:57:00 PM 43.0827 54.8608 68° East  Level Estimated
Sat 08:58:00 PM 43.1278 55.0186 69° East  Level Estimated
Sat 08:59:00 PM 43.1726 55.1767 69° East  Level Estimated
Sat 09:00:00 PM 43.2172 55.3349 69° East  Level Estimated
Sat 09:01:00 PM 43.2616 55.4935 69° East  Level Estimated
Sat 09:02:00 PM 43.3058 55.6522 69° East  Level Estimated
Sat 09:03:00 PM 43.3497 55.8112 69° East  Level Estimated
Sat 09:04:00 PM 43.3935 55.9704 69° East  Level Estimated
Sat 09:05:00 PM 43.4370 56.1298 69° East  Level Estimated
Sat 09:06:00 PM 43.4803 56.2895 69° East  Level Estimated
Sat 09:07:00 PM 43.5233 56.4493 70° East  Level Estimated
Sat 09:08:00 PM 43.5662 56.6095 70° East  Level Estimated
Sat 09:09:00 PM 43.6088 56.7698 70° East  Level Estimated
Sat 09:10:00 PM 43.6512 56.9304 70° East  Level Estimated
Sat 09:11:00 PM 43.6933 57.0912 70° East  Level Estimated
Sat 09:12:00 PM 43.7353 57.2522 70° East  Level Estimated
Sat 09:13:00 PM 43.7770 57.4135 70° East  Level Estimated
Sat 09:14:00 PM 43.8185 57.5749 70° East  Level Estimated
Sat 09:15:00 PM 43.8597 57.7366 70° East  Level Estimated
Sat 09:16:00 PM 43.9008 57.8986 71° East  Level Estimated
Sat 09:17:00 PM 43.9416 58.0607 71° East  Level Estimated
Sat 09:18:00 PM 43.9822 58.2231 71° East  Level Estimated
Sat 09:19:00 PM 44.0225 58.3857 71° East  Level Estimated
Sat 09:20:00 PM 44.0626 58.5485 71° East  Level Estimated
Sat 09:21:00 PM 44.1025 58.7115 71° East  Level Estimated
Sat 09:22:00 PM 44.1421 58.8747 71° East  Level Estimated
Sat 09:23:00 PM 44.1815 59.0382 71° East  Level Estimated
Sat 09:24:00 PM 44.2207 59.2019 71° East  Level Estimated
Sat 09:25:00 PM 44.2597 59.3658 72° East  Level Estimated
Sat 09:26:00 PM 44.2984 59.5299 72° East  Level Estimated
Sat 09:27:00 PM 44.3369 59.6943 72° East  Level Estimated
Sat 09:28:00 PM 44.3751 59.8588 72° East  Level Estimated
Sat 09:29:00 PM 44.4131 60.0236 72° East  Level Estimated
Sat 09:30:00 PM 44.4509 60.1886 72° East  Level Estimated
Sat 09:31:00 PM 44.4884 60.3538 72° East  Level Estimated
Sat 09:32:00 PM 44.5257 60.5192 72° East  Level Estimated
Sat 09:33:00 PM 44.5628 60.6848 73° East  Level Estimated
Sat 09:34:00 PM 44.5996 60.8506 73° East  Level Estimated
Sat 09:35:00 PM 44.6362 61.0166 73° East  Level Estimated
Sat 09:36:00 PM 44.6725 61.1829 73° East  Level Estimated
Sat 09:37:00 PM 44.7086 61.3493 73° East  Level Estimated
Sat 09:38:00 PM 44.7444 61.5160 73° East  Level Estimated
Sat 09:39:00 PM 44.7800 61.6828 73° East  Level Estimated
Sat 09:40:00 PM 44.8154 61.8499 73° East  Level Estimated
Sat 09:41:00 PM 44.8505 62.0172 73° East  Level Estimated
Sat 09:42:00 PM 44.8854 62.1847 74° East  Level Estimated
Sat 09:43:00 PM 44.9200 62.3523 74° East  Level Estimated
Sat 09:44:00 PM 44.9544 62.5202 74° East  Level Estimated
Sat 09:45:00 PM 44.9886 62.6883 74° East  Level Estimated
Sat 09:46:00 PM 45.0225 62.8566 74° East  Level Estimated
Sat 09:47:00 PM 45.0561 63.0251 74° East  Level Estimated
Sat 09:48:00 PM 45.0895 63.1937 74° East  Level Estimated
Sat 09:49:00 PM 45.1227 63.3626 74° East  Level Estimated
Sat 09:50:00 PM 45.1556 63.5317 75° East  Level Estimated
Sat 09:51:00 PM 45.1882 63.7010 75° East  Level Estimated
Sat 09:52:00 PM 45.2206 63.8704 75° East  Level Estimated
Sat 09:53:00 PM 45.2528 64.0401 75° East  Level Estimated
Sat 09:54:00 PM 45.2847 64.2099 75° East  Level Estimated
Sat 09:55:00 PM 45.3163 64.3799 75° East  Level Estimated
Sat 09:56:00 PM 45.3477 64.5501 75° East  Level Estimated
Sat 09:57:00 PM 45.3788 64.7206 75° East  Level Estimated
Sat 09:58:00 PM 45.4097 64.8912 75° East  Level Estimated
Sat 09:59:00 PM 45.4404 65.0619 76° East  Level Estimated
Sat 10:00:00 PM 45.4707 65.2329 76° East  Level Estimated
Sat 10:01:00 PM 45.5009 65.4041 76° East  Level Estimated
Sat 10:02:00 PM 45.5307 65.5754 76° East  Level Estimated
Sat 10:03:00 PM 45.5603 65.7469 76° East  Level Estimated
Sat 10:04:00 PM 45.5897 65.9186 76° East  Level Estimated
Sat 10:05:00 PM 45.6188 66.0905 76° East  Level Estimated
Sat 10:06:00 PM 45.6476 66.2625 76° East  Level Estimated
Sat 10:07:00 PM 45.6762 66.4348 77° East  Level Estimated
Sat 10:08:00 PM 45.7045 66.6072 77° East  Level Estimated
Sat 10:09:00 PM 45.7326 66.7797 77° East  Level Estimated
Sat 10:10:00 PM 45.7604 66.9525 77° East  Level Estimated
Sat 10:11:00 PM 45.7879 67.1254 77° East  Level Estimated
Sat 10:12:00 PM 45.8152 67.2985 77° East  Level Estimated
Sat 10:13:00 PM 45.8422 67.4718 77° East  Level Estimated
Sat 10:14:00 PM 45.8690 67.6452 77° East  Level Estimated
Sat 10:15:00 PM 45.8955 67.8188 78° East  Level Estimated
Sat 10:16:00 PM 45.9217 67.9925 78° East  Level Estimated
Sat 10:17:00 PM 45.9477 68.1665 78° East  Level Estimated
Sat 10:18:00 PM 45.9734 68.3406 78° East  Level Estimated
Sat 10:19:00 PM 45.9988 68.5148 78° East  Level Estimated
Sat 10:20:00 PM 46.0240 68.6892 78° East  Level Estimated
Sat 10:21:00 PM 46.0489 68.8638 78° East  Level Estimated
Sat 10:22:00 PM 46.0735 69.0385 78° East  Level Estimated
Sat 10:23:00 PM 46.0979 69.2134 79° East  Level Estimated
Sat 10:24:00 PM 46.1220 69.3884 79° East  Level Estimated
Sat 10:25:00 PM 46.1458 69.5636 79° East  Level Estimated
Sat 10:26:00 PM 46.1694 69.7389 79° East  Level Estimated
Sat 10:27:00 PM 46.1927 69.9144 79° East  Level Estimated
Sat 10:28:00 PM 46.2157 70.0900 79° East  Level Estimated
Sat 10:29:00 PM 46.2385 70.2658 79° East  Level Estimated
Sat 10:30:00 PM 46.2610 70.4417 79° East  Level Estimated
Sat 10:31:00 PM 46.2832 70.6178 80° East  Level Estimated
Sat 10:32:00 PM 46.3052 70.7940 80° East  Level Estimated
Sat 10:33:00 PM 46.3269 70.9704 80° East  Level Estimated
Sat 10:34:00 PM 46.3483 71.1468 80° East  Level Estimated
Sat 10:35:00 PM 46.3694 71.3235 80° East  Level Estimated
Sat 10:36:00 PM 46.3903 71.5002 80° East  Level Estimated
Sat 10:37:00 PM 46.4109 71.6771 80° East  Level Estimated
Sat 10:38:00 PM 46.4312 71.8541 80° East  Level Estimated
Sat 10:39:00 PM 46.4512 72.0313 81° East  Level Estimated
Sat 10:40:00 PM 46.4710 72.2086 81° East  Level Estimated
Sat 10:41:00 PM 46.4905 72.3860 81° East  Level Estimated
Sat 10:42:00 PM 46.5098 72.5636 81° East  Level Estimated
Sat 10:43:00 PM 46.5287 72.7412 81° East  Level Estimated
Sat 10:44:00 PM 46.5474 72.9190 81° East  Level Estimated
Sat 10:45:00 PM 46.5658 73.0969 81° East  Level Estimated
Sat 10:46:00 PM 46.5839 73.2749 82° East  Level Estimated
Sat 10:47:00 PM 46.6018 73.4531 82° East  Level Estimated
Sat 10:48:00 PM 46.6193 73.6314 82° East  Level Estimated
Sat 10:49:00 PM 46.6366 73.8098 82° East  Level Estimated
Sat 10:50:00 PM 46.6536 73.9882 82° East  Level Estimated
Sat 10:51:00 PM 46.6704 74.1668 82° East  Level Estimated
Sat 10:52:00 PM 46.6869 74.3456 82° East  Level Estimated
Sat 10:53:00 PM 46.7030 74.5244 82° East  Level Estimated
Sat 10:54:00 PM 46.7189 74.7033 83° East  Level Estimated
Sat 10:55:00 PM 46.7346 74.8823 83° East  Level Estimated
Sat 10:56:00 PM 46.7499 75.0615 83° East  Level Estimated
Sat 10:57:00 PM 46.7650 75.2407 83° East  Level Estimated
Sat 10:58:00 PM 46.7798 75.4201 83° East  Level Estimated
Sat 10:59:00 PM 46.7943 75.5995 83° East  Level Estimated
Sat 11:00:00 PM 46.8085 75.7790 83° East  Level Estimated
Sat 11:01:00 PM 46.8225 75.9587 83° East  Level Estimated
Sat 11:02:00 PM 46.8361 76.1384 84° East  Level Estimated
Sat 11:03:00 PM 46.8495 76.3182 84° East  Level Estimated
Sat 11:04:00 PM 46.8626 76.4981 84° East  Level Estimated
Sat 11:05:00 PM 46.8754 76.6781 84° East  Level Estimated
Sat 11:06:00 PM 46.8880 76.8581 84° East  Level Estimated
Sat 11:07:00 PM 46.9002 77.0383 84° East  Level Estimated
Sat 11:08:00 PM 46.9122 77.2185 84° East  Level Estimated
Sat 11:09:00 PM 46.9239 77.3988 85° East  Level Estimated
Sat 11:10:00 PM 46.9353 77.5792 85° East  Level Estimated
Sat 11:11:00 PM 46.9464 77.7597 85° East  Level Estimated
Sat 11:12:00 PM 46.9572 77.9402 85° East  Level Estimated
Sat 11:13:00 PM 46.9678 78.1208 85° East  Level Estimated
Sat 11:14:00 PM 46.9781 78.3015 85° East  Level Estimated
Sat 11:15:00 PM 46.9881 78.4823 85° East  Level Estimated
Sat 11:16:00 PM 46.9978 78.6631 85° East  Level Estimated
Sat 11:17:00 PM 47.0072 78.8440 86° East  Level Estimated
Sat 11:18:00 PM 47.0163 79.0249 86° East  Level Estimated
Sat 11:19:00 PM 47.0252 79.2059 86° East  Level Estimated
Sat 11:20:00 PM 47.0337 79.3870 86° East  Level Estimated
Sat 11:21:00 PM 47.0420 79.5681 86° East  Level Estimated
Sat 11:22:00 PM 47.0500 79.7493 86° East  Level Estimated
Sat 11:23:00 PM 47.0577 79.9305 86° East  Level Estimated
Sat 11:24:00 PM 47.0651 80.1118 86° East  Level Estimated
Sat 11:25:00 PM 47.0722 80.2932 87° East  Level Estimated
Sat 11:26:00 PM 47.0791 80.4745 87° East  Level Estimated
Sat 11:27:00 PM 47.0857 80.6560 87° East  Level Estimated
Sat 11:28:00 PM 47.0919 80.8374 87° East  Level Estimated
Sat 11:29:00 PM 47.0979 81.0189 87° East  Level Estimated
Sat 11:30:00 PM 47.1036 81.2005 87° East  Level Estimated
Sat 11:31:00 PM 47.1090 81.3821 87° East  Level Estimated
Sat 11:32:00 PM 47.1142 81.5637 88° East  Level Estimated
Sat 11:33:00 PM 47.1190 81.7454 88° East  Level Estimated
Sat 11:34:00 PM 47.1235 81.9270 88° East  Level Estimated
Sat 11:35:00 PM 47.1278 82.1088 88° East  Level Estimated
Sat 11:36:00 PM 47.1318 82.2905 88° East  Level Estimated
Sat 11:37:00 PM 47.1355 82.4723 88° East  Level Estimated
Sat 11:38:00 PM 47.1389 82.6541 88° East  Level Estimated
Sat 11:39:00 PM 47.1420 82.8359 88° East  Level Estimated
Sat 11:40:00 PM 47.1448 83.0178 89° East  Level Estimated
Sat 11:41:00 PM 47.1474 83.1996 89° East  Level Estimated
Sat 11:42:00 PM 47.1496 83.3815 89° East  Level Estimated
Sat 11:43:00 PM 47.1516 83.5634 89° East  Level Estimated
Sat 11:44:00 PM 47.1532 83.7453 89° East  Level Estimated
Sat 11:45:00 PM 47.1546 83.9272 89° East  Level Estimated
Sat 11:46:00 PM 47.1557 84.1091 89° East  Level Estimated
Sat 11:47:00 PM 47.1565 84.2911 90° East  Level Estimated
Sat 11:48:00 PM 47.1571 84.4730 90° East  Level Estimated
Sat 11:49:00 PM 47.1573 84.6549 90° East  Level Estimated
Sat 11:50:00 PM 47.1572 84.8369 90° East  Level Estimated
Sat 11:51:00 PM 47.1569 85.0188 90° East  Level Estimated
Sat 11:52:00 PM 47.1563 85.2007 90° East  Level Estimated
Sat 11:53:00 PM 47.1553 85.3827 90° East  Level Estimated
Sat 11:54:00 PM 47.1541 85.5646 90° East  Level Estimated
Sat 11:55:00 PM 47.1526 85.7465 91° East  Level Estimated
Sat 11:56:00 PM 47.1509 85.9284 91° East  Level Estimated
Sat 11:57:00 PM 47.1488 86.1103 91° East  Level Estimated
Sat 11:58:00 PM 47.1464 86.2922 91° East  Level Estimated
Sat 11:59:00 PM 47.1438 86.4740 91° East  Level Estimated
Sun 12:00:00 AM 47.1409 86.6558 91° East  Level Estimated
Sun 12:01:00 AM 47.1376 86.8376 91° East  Level Estimated
Sun 12:02:00 AM 47.1341 87.0194 92° East  Level Estimated
Sun 12:03:00 AM 47.1303 87.2012 92° East  Level Estimated
Sun 12:04:00 AM 47.1263 87.3829 92° East  Level Estimated
Sun 12:05:00 AM 47.1219 87.5647 92° East  Level Estimated
Sun 12:06:00 AM 47.1172 87.7463 92° East  Level Estimated
Sun 12:07:00 AM 47.1123 87.9280 92° East  Level Estimated
Sun 12:08:00 AM 47.1071 88.1096 92° East  Level Estimated
Sun 12:09:00 AM 47.1015 88.2912 92° East  Level Estimated
Sun 12:10:00 AM 47.0957 88.4727 93° East  Level Estimated
Sun 12:11:00 AM 47.0896 88.6542 93° East  Level Estimated
Sun 12:12:00 AM 47.0832 88.8356 93° East  Level Estimated
Sun 12:13:00 AM 47.0766 89.0171 93° East  Level Estimated
Sun 12:14:00 AM 47.0696 89.1984 93° East  Level Estimated
Sun 12:15:00 AM 47.0624 89.3797 93° East  Level Estimated
Sun 12:16:00 AM 47.0549 89.5610 93° East  Level Estimated
Sun 12:17:00 AM 47.0471 89.7422 94° East  Level Estimated
Sun 12:18:00 AM 47.0390 89.9234 94° East  Level Estimated
Sun 12:19:00 AM 47.0306 90.1045 94° East  Level Estimated
Sun 12:20:00 AM 47.0219 90.2855 94° East  Level Estimated
Sun 12:21:00 AM 47.0130 90.4665 94° East  Level Estimated
Sun 12:22:00 AM 47.0037 90.6474 94° East  Level Estimated
Sun 12:23:00 AM 46.9942 90.8283 94° East  Level Estimated
Sun 12:24:00 AM 46.9844 91.0090 94° East  Level Estimated
Sun 12:25:00 AM 46.9743 91.1898 95° East  Level Estimated
Sun 12:26:00 AM 46.9639 91.3704 95° East  Level Estimated
Sun 12:27:00 AM 46.9533 91.5510 95° East  Level Estimated
Sun 12:28:00 AM 46.9423 91.7315 95° East  Level Estimated
Sun 12:29:00 AM 46.9311 91.9120 95° East  Level Estimated
Sun 12:30:00 AM 46.9196 92.0923 95° East  Level Estimated
Sun 12:31:00 AM 46.9078 92.2726 95° East  Level Estimated
Sun 12:32:00 AM 46.8957 92.4528 96° East  Level Estimated
Sun 12:33:00 AM 46.8834 92.6329 96° East  Level Estimated
Sun 12:34:00 AM 46.8707 92.8130 96° East  Level Estimated
Sun 12:35:00 AM 46.8578 92.9929 96° East  Level Estimated
Sun 12:36:00 AM 46.8446 93.1728 96° East  Level Estimated
Sun 12:37:00 AM 46.8311 93.3526 96° East  Level Estimated
Sun 12:38:00 AM 46.8173 93.5322 96° East  Level Estimated
Sun 12:39:00 AM 46.8033 93.7118 96° East  Level Estimated
Sun 12:40:00 AM 46.7889 93.8913 97° East  Level Estimated
Sun 12:41:00 AM 46.7743 94.0707 97° East  Level Estimated
Sun 12:42:00 AM 46.7594 94.2500 97° East  Level Estimated
Sun 12:43:00 AM 46.7443 94.4292 97° East  Level Estimated
Sun 12:44:00 AM 46.7288 94.6083 97° East  Level Estimated
Sun 12:45:00 AM 46.7131 94.7873 97° East  Level Estimated
Sun 12:46:00 AM 46.6971 94.9662 97° East  Level Estimated
Sun 12:47:00 AM 46.6808 95.1450 97° East  Level Estimated
Sun 12:48:00 AM 46.6642 95.3237 98° East  Level Estimated
Sun 12:49:00 AM 46.6474 95.5022 98° East  Level Estimated
Sun 12:50:00 AM 46.6303 95.6807 98° East  Level Estimated
Sun 12:51:00 AM 46.6129 95.8590 98° East  Level Estimated
Sun 12:52:00 AM 46.5952 96.0372 98° East  Level Estimated
Sun 12:53:00 AM 46.5773 96.2153 98° East  Level Estimated
Sun 12:54:00 AM 46.5590 96.3933 98° East  Level Estimated
Sun 12:55:00 AM 46.5405 96.5712 99° East  Level Estimated
Sun 12:56:00 AM 46.5217 96.7489 99° East  Level Estimated
Sun 12:57:00 AM 46.5027 96.9266 99° East  Level Estimated
Sun 12:58:00 AM 46.4834 97.1041 99° East  Level Estimated
Sun 12:59:00 AM 46.4638 97.2814 99° East  Level Estimated
Sun 01:00:00 AM 46.4439 97.4587 99° East  Level Estimated
Sun 01:01:00 AM 46.4237 97.6358 99° East  Level Estimated
Sun 01:02:00 AM 46.4033 97.8128 99° East  Level Estimated
Sun 01:03:00 AM 46.3826 97.9896 100° East  Level Estimated
Sun 01:04:00 AM 46.3616 98.1663 100° East  Level Estimated
Sun 01:05:00 AM 46.3404 98.3429 100° East  Level Estimated
Sun 01:06:00 AM 46.3189 98.5193 100° East  Level Estimated
Sun 01:07:00 AM 46.2971 98.6956 100° East  Level Estimated
Sun 01:08:00 AM 46.2751 98.8718 100° East  Level Estimated
Sun 01:09:00 AM 46.2527 99.0478 100° East  Level Estimated
Sun 01:10:00 AM 46.2301 99.2237 100° East  Level Estimated
Sun 01:11:00 AM 46.2073 99.3994 101° East  Level Estimated
Sun 01:12:00 AM 46.1842 99.5750 101° East  Level Estimated
Sun 01:13:00 AM 46.1608 99.7504 101° East  Level Estimated
Sun 01:14:00 AM 46.1371 99.9257 101° East  Level Estimated
Sun 01:15:00 AM 46.1132 100.1008 101° East  Level Estimated
Sun 01:16:00 AM 46.0890 100.2758 101° East  Level Estimated
Sun 01:17:00 AM 46.0645 100.4506 101° East  Level Estimated
Sun 01:18:00 AM 46.0397 100.6253 101° East  Level Estimated
Sun 01:19:00 AM 46.0147 100.7998 102° East  Level Estimated
Sun 01:20:00 AM 45.9895 100.9741 102° East  Level Estimated
Sun 01:21:00 AM 45.9639 101.1483 102° East  Level Estimated
Sun 01:22:00 AM 45.9381 101.3223 102° East  Level Estimated
Sun 01:23:00 AM 45.9121 101.4962 102° East  Level Estimated
Sun 01:24:00 AM 45.8857 101.6699 102° East  Level Estimated
Sun 01:25:00 AM 45.8592 101.8434 102° East  Level Estimated
Sun 01:26:00 AM 45.8323 102.0168 102° East  Level Estimated
Sun 01:27:00 AM 45.8052 102.1900 103° East  Level Estimated
Sun 01:28:00 AM 45.7778 102.3630 103° East  Level Estimated
Sun 01:29:00 AM 45.7502 102.5359 103° East  Level Estimated
Sun 01:30:00 AM 45.7223 102.7086 103° East  Level Estimated
Sun 01:31:00 AM 45.6941 102.8811 103° East  Level Estimated
Sun 01:32:00 AM 45.6657 103.0534 103° East  Level Estimated
Sun 01:33:00 AM 45.6371 103.2256 103° East  Level Estimated
Sun 01:34:00 AM 45.6081 103.3976 103° East  Level Estimated
Sun 01:35:00 AM 45.5789 103.5694 104° East  Level Estimated
Sun 01:36:00 AM 45.5495 103.7410 104° East  Level Estimated
Sun 01:37:00 AM 45.5198 103.9125 104° East  Level Estimated
Sun 01:38:00 AM 45.4898 104.0837 104° East  Level Estimated
Sun 01:39:00 AM 45.4596 104.2548 104° East  Level Estimated
Sun 01:40:00 AM 45.4291 104.4257 104° East  Level Estimated
Sun 01:41:00 AM 45.3984 104.5964 104° East  Level Estimated
Sun 01:42:00 AM 45.3674 104.7670 104° East  Level Estimated
Sun 01:43:00 AM 45.3362 104.9373 105° East  Level Estimated
Sun 01:44:00 AM 45.3047 105.1074 105° East  Level Estimated
Sun 01:45:00 AM 45.2730 105.2774 105° East  Level Estimated
Sun 01:46:00 AM 45.2410 105.4472 105° East  Level Estimated
Sun 01:47:00 AM 45.2087 105.6168 105° East  Level Estimated
Sun 01:48:00 AM 45.1762 105.7861 105° East  Level Estimated
Sun 01:49:00 AM 45.1435 105.9553 105° East  Level Estimated
Sun 01:50:00 AM 45.1105 106.1243 105° East  Level Estimated
Sun 01:51:00 AM 45.0773 106.2931 106° East  Level Estimated
Sun 01:52:00 AM 45.0438 106.4617 106° East  Level Estimated
Sun 01:53:00 AM 45.0100 106.6301 106° East  Level Estimated
Sun 01:54:00 AM 44.9761 106.7984 106° East  Level Estimated
Sun 01:55:00 AM 44.9418 106.9664 106° East  Level Estimated
Sun 01:56:00 AM 44.9073 107.1342 106° East  Level Estimated
Sun 01:57:00 AM 44.8726 107.3018 106° East  Level Estimated
Sun 01:58:00 AM 44.8377 107.4692 106° East  Level Estimated
Sun 01:59:00 AM 44.8024 107.6364 106° East  Level Estimated
Sun 02:00:00 AM 44.7670 107.8034 107° East  Level Estimated
Sun 02:01:00 AM 44.7313 107.9702 107° East  Level Estimated
Sun 02:02:00 AM 44.6954 108.1367 107° East  Level Estimated
Sun 02:03:00 AM 44.6592 108.3031 107° East  Level Estimated
Sun 02:04:00 AM 44.6228 108.4693 107° East  Level Estimated
Sun 02:05:00 AM 44.5861 108.6353 107° East  Level Estimated
Sun 02:06:00 AM 44.5492 108.8010 107° East  Level Estimated
Sun 02:07:00 AM 44.5121 108.9666 107° East  Level Estimated
Sun 02:08:00 AM 44.4747 109.1319 108° East  Level Estimated
Sun 02:09:00 AM 44.4371 109.2970 108° East  Level Estimated
Sun 02:10:00 AM 44.3992 109.4619 108° East  Level Estimated
Sun 02:11:00 AM 44.3611 109.6266 108° East  Level Estimated
Sun 02:12:00 AM 44.3228 109.7911 108° East  Level Estimated
Sun 02:13:00 AM 44.2842 109.9553 108° East  Level Estimated
Sun 02:14:00 AM 44.2454 110.1193 108° East  Level Estimated
Sun 02:15:00 AM 44.2064 110.2832 108° East  Level Estimated
Sun 02:16:00 AM 44.1671 110.4468 108° East  Level Estimated
Sun 02:17:00 AM 44.1276 110.6102 109° East  Level Estimated
Sun 02:18:00 AM 44.0879 110.7733 109° East  Level Estimated
Sun 02:19:00 AM 44.0479 110.9363 109° East  Level Estimated
Sun 02:20:00 AM 44.0077 111.0990 109° East  Level Estimated
Sun 02:21:00 AM 43.9673 111.2615 109° East  Level Estimated
Sun 02:22:00 AM 43.9266 111.4238 109° East  Level Estimated
Sun 02:23:00 AM 43.8857 111.5859 109° East  Level Estimated
Sun 02:24:00 AM 43.8446 111.7477 109° East  Level Estimated
Sun 02:25:00 AM 43.8032 111.9093 109° East  Level Estimated
Sun 02:26:00 AM 43.7617 112.0707 110° East  Level Estimated
Sun 02:27:00 AM 43.7199 112.2319 110° East  Level Estimated
Sun 02:28:00 AM 43.6778 112.3928 110° East  Level Estimated
Sun 02:29:00 AM 43.6356 112.5536 110° East  Level Estimated
Sun 02:30:00 AM 43.5931 112.7141 110° East  Level Estimated
Sun 02:31:00 AM 43.5504 112.8743 110° East  Level Estimated
Sun 02:32:00 AM 43.5075 113.0343 110° East  Level Estimated
Sun 02:33:00 AM 43.4643 113.1942 110° East  Level Estimated
Sun 02:34:00 AM 43.4210 113.3537 110° East  Level Estimated
Sun 02:35:00 AM 43.3774 113.5131 111° Southeast  Level Estimated
Sun 02:36:00 AM 43.3336 113.6722 111° Southeast  Level Estimated
Sun 02:36:57 AM 40.3680 115.9730 111° Southeast 527 606 41,100  Level FlightAware ADS-B
Sun 02:37:00 AM 43.2895 113.8311 111° Southeast  Level Estimated
Sun 02:37:57 AM 40.3590 116.1550 94° East 521 600 41,100  Level FlightAware ADS-B
Sun 02:38:00 AM 43.2453 113.9898 111° Southeast  Level Estimated
Sun 02:38:42 AM 40.3510 116.3220 94° East 521 600 41,100  Level FlightAware ADS-B
Sun 02:39:22 AM 40.3450 116.4440 94° East 524 603 41,100  Level FlightAware ADS-B
Sun 02:40:07 AM 40.3390 116.5680 94° East 524 603 41,100  Level FlightAware ADS-B
Sun 02:40:47 AM 40.3270 116.7080 96° East 530 610 41,100  Level FlightAware ADS-B
Sun 02:41:27 AM 40.3110 116.8270 100° East 529 609 41,100  Level FlightAware ADS-B
Sun 02:42:07 AM 40.2850 116.9370 107° East 527 606 41,100  Level FlightAware ADS-B
Sun 02:42:47 AM 40.2700 117.0440 100° East 527 606 41,100  Level FlightAware ADS-B
Sun 02:43:37 AM 40.2500 117.1770 101° East 527 606 41,100  Level FlightAware ADS-B
Sun 02:44:17 AM 40.2340 117.2840 101° East 527 606 41,100  Level FlightAware ADS-B
Sun 02:44:57 AM 40.2180 117.3900 101° East 527 606 41,100  Level FlightAware ADS-B
Sun 02:45:37 AM 40.2020 117.4970 101° East 527 606 41,100  Level FlightAware ADS-B
Sun 02:46:17 AM 40.1860 117.6030 101° East 527 606 41,100  Level FlightAware ADS-B
Sun 02:47:07 AM 40.1670 117.7360 101° East 527 606 41,100  Level FlightAware ADS-B
Sun 02:47:47 AM 40.1510 117.8430 101° East 527 606 41,100  Level FlightAware ADS-B
Sun 02:48:27 AM 40.1350 117.9490 101° East 527 606 41,100  Level FlightAware ADS-B
Sun 02:49:07 AM 40.1190 118.0560 101° East 527 606 41,100  Level FlightAware ADS-B
Sun 02:49:47 AM 40.1030 118.1620 101° East 527 606 41,100  Level FlightAware ADS-B
Sun 02:50:37 AM 40.0840 118.2950 101° East 527 606 41,100  Level FlightAware ADS-B
Sun 02:51:17 AM 40.0680 118.4010 101° East 527 606 41,100 -2 Level FlightAware ADS-B
Sun 02:53:00 AM 40.0037 118.6654 108° East  Level Estimated
Sun 02:54:00 AM 39.9660 118.8191 108° East  Level Estimated
Sun 02:55:00 AM 39.9281 118.9727 108° East  Level Estimated
Sun 02:56:00 AM 39.8899 119.1262 108° East  Level Estimated
Sun 02:57:00 AM 39.8516 119.2794 108° East  Level Estimated
Sun 02:58:00 AM 39.8131 119.4325 108° East  Level Estimated
Sun 02:59:00 AM 39.7743 119.5854 108° East  Level Estimated
Sun 03:00:00 AM 39.7354 119.7382 108° East  Level Estimated
Sun 03:01:00 AM 39.6963 119.8908 108° East  Level Estimated
Sun 03:02:00 AM 39.6570 120.0432 108° East  Level Estimated
Sun 03:03:00 AM 39.6174 120.1954 109° East  Level Estimated
Sun 03:04:00 AM 39.5777 120.3474 109° East  Level Estimated
Sun 03:05:00 AM 39.5378 120.4993 109° East  Level Estimated
Sun 03:06:00 AM 39.4976 120.6510 109° East  Level Estimated
Sun 03:07:00 AM 39.4573 120.8026 109° East  Level Estimated
Sun 03:08:00 AM 39.4168 120.9539 109° East  Level Estimated
Sun 03:09:00 AM 39.3761 121.1051 109° East  Level Estimated
Sun 03:10:00 AM 39.3352 121.2561 109° East  Level Estimated
Sun 03:11:00 AM 39.2941 121.4069 109° East  Level Estimated
Sun 03:12:00 AM 39.2528 121.5575 109° East  Level Estimated
Sun 03:13:00 AM 39.2113 121.7080 110° East  Level Estimated
Sun 03:14:00 AM 39.1696 121.8583 110° East  Level Estimated
Sun 03:15:00 AM 39.1277 122.0084 110° East  Level Estimated
Sun 03:16:00 AM 39.0856 122.1583 110° East  Level Estimated
Sun 03:17:00 AM 39.0434 122.3081 110° East  Level Estimated
Sun 03:18:00 AM 39.0009 122.4576 110° East  Level Estimated
Sun 03:19:00 AM 38.9583 122.6070 110° East  Level Estimated
Sun 03:20:00 AM 38.9154 122.7562 110° East  Level Estimated
Sun 03:21:00 AM 38.8724 122.9053 110° East  Level Estimated
Sun 03:22:00 AM 38.8292 123.0541 110° East  Level Estimated
Sun 03:23:00 AM 38.7858 123.2028 110° East  Level Estimated
Sun 03:24:00 AM 38.7422 123.3513 111° Southeast  Level Estimated
Sun 03:25:00 AM 38.6984 123.4996 111° Southeast  Level Estimated
Sun 03:26:00 AM 38.6544 123.6477 111° Southeast  Level Estimated
Sun 03:27:00 AM 38.6103 123.7957 111° Southeast  Level Estimated
Sun 03:28:00 AM 38.5659 123.9434 111° Southeast  Level Estimated
Sun 03:29:00 AM 38.5214 124.0910 111° Southeast  Level Estimated
Sun 03:30:00 AM 38.4767 124.2384 111° Southeast  Level Estimated
Sun 03:31:00 AM 38.4318 124.3856 111° Southeast  Level Estimated
Sun 03:32:00 AM 38.3867 124.5326 111° Southeast  Level Estimated
Sun 03:33:00 AM 38.3415 124.6795 111° Southeast  Level Estimated
Sun 03:34:00 AM 38.2961 124.8261 112° Southeast  Level Estimated
Sun 03:35:00 AM 38.2504 124.9726 112° Southeast  Level Estimated
Sun 03:36:00 AM 38.2046 125.1189 112° Southeast  Level Estimated
Sun 03:37:00 AM 38.1586 125.2650 112° Southeast  Level Estimated
Sun 03:38:00 AM 38.1124 125.4109 112° Southeast  Level Estimated
Sun 03:39:00 AM 38.0661 125.5567 112° Southeast  Level Estimated
Sun 03:40:00 AM 38.0196 125.7022 112° Southeast  Level Estimated
Sun 03:40:57 AM 37.2080 126.1010 112° Southeast 512 589 41,000  Level FlightAware ADS-B
Sun 03:41:00 AM 37.9729 125.8476 112° Southeast  Level Estimated
Sun 03:41:37 AM 37.2090 126.2120 89° East 511 588 41,000  Level FlightAware ADS-B
Sun 03:42:22 AM 37.2110 126.3500 89° East 511 588 41,000  Level FlightAware ADS-B
Sun 03:43:07 AM 37.2110 126.4780 90° East 509 586 41,000  Level FlightAware ADS-B
Sun 03:43:47 AM 37.2120 126.6000 89° East 509 586 41,000  Level FlightAware ADS-B
Sun 03:44:32 AM 37.2130 126.7330 89° East 509 586 41,000  Level FlightAware ADS-B
Sun 03:45:12 AM 37.2130 126.8520 90° East 509 586 41,000  Level FlightAware ADS-B
Sun 03:45:52 AM 37.2310 126.9720 79° East 503 579 41,000  Level FlightAware ADS-B
Sun 03:46:37 AM 37.2710 127.0890 67° East 501 577 41,000  Level FlightAware ADS-B
Sun 03:47:17 AM 37.3020 127.1990 70° East 506 582 41,000  Level FlightAware ADS-B
Sun 03:48:02 AM 37.3350 127.3260 72° East 506 582 41,000  Level FlightAware ADS-B
Sun 03:48:42 AM 37.3640 127.4370 72° East 504 580 41,000  Level FlightAware ADS-B
Sun 03:49:22 AM 37.3930 127.5490 72° East 504 580 41,000  Level FlightAware ADS-B
Sun 03:50:07 AM 37.4260 127.6730 71° East 503 579 41,000  Level FlightAware ADS-B
Sun 03:50:47 AM 37.4560 127.7880 72° East 503 579 41,000  Level FlightAware ADS-B
Sun 03:51:27 AM 37.4840 127.8980 72° East 503 579 41,000  Level FlightAware ADS-B
Sun 03:52:12 AM 37.5160 128.0220 72° East 504 580 41,000  Level FlightAware ADS-B
Sun 03:52:52 AM 37.5200 128.1400 88° East 513 590 41,000  Level FlightAware ADS-B
Sun 03:53:32 AM 37.4890 128.2520 109° East 509 586 41,000  Level FlightAware ADS-B
Sun 03:54:17 AM 37.4470 128.3780 113° Southeast 511 588 41,000  Level FlightAware ADS-B
Sun 03:54:57 AM 37.4160 128.4790 111° Southeast 511 588 41,000  Level FlightAware ADS-B
Sun 03:55:37 AM 37.3870 128.5730 111° Southeast 511 588 41,000  Level FlightAware ADS-B
Sun 03:56:17 AM 37.3580 128.6680 111° Southeast 511 588 41,000  Level FlightAware ADS-B
Sun 03:56:57 AM 37.3290 128.7620 111° Southeast 511 588 41,000  Level FlightAware ADS-B
Sun 03:57:47 AM 37.2930 128.8800 111° Southeast 511 588 41,000  Level FlightAware ADS-B
Sun 03:58:27 AM 37.2650 128.9750 110° East 511 588 41,000  Level FlightAware ADS-B
Sun 03:59:07 AM 37.2360 129.0690 111° Southeast 511 588 41,000  Level FlightAware ADS-B
Sun 03:59:47 AM 37.2070 129.1630 111° Southeast 511 588 41,000  Level FlightAware ADS-B
Sun 04:00:37 AM 37.1710 129.2810 111° Southeast 511 588 41,000  Level FlightAware ADS-B
Sun 04:01:17 AM 37.1420 129.3750 111° Southeast 511 588 41,000  Level FlightAware ADS-B
Sun 04:01:57 AM 37.1130 129.4690 111° Southeast 511 588 41,000  Level FlightAware ADS-B
Sun 04:02:37 AM 37.0840 129.5630 111° Southeast 511 588 41,000  Level FlightAware ADS-B
Sun 04:03:17 AM 37.0560 129.6570 110° East 511 588 41,000  Level FlightAware ADS-B
Sun 04:04:07 AM 37.0200 129.7750 111° Southeast 511 588 41,000  Level FlightAware ADS-B
Sun 04:06:00 AM 36.9080 130.0307 119° Southeast  Level Estimated
Sun 04:07:00 AM 36.8483 130.1661 119° Southeast  Level Estimated
Sun 04:08:00 AM 36.7884 130.3014 119° Southeast  Level Estimated
Sun 04:09:00 AM 36.7284 130.4364 119° Southeast  Level Estimated
Sun 04:10:00 AM 36.6682 130.5712 119° Southeast  Level Estimated
Sun 04:10:52 AM 36.4870 131.1190 119° Southeast 532 612 41,000  Level FlightAware ADS-B
Sun 04:11:32 AM 36.4460 131.2300 115° Southeast 533 613 41,000  Level FlightAware ADS-B
Sun 04:12:17 AM 36.3990 131.3570 115° Southeast 537 618 41,000  Level FlightAware ADS-B
Sun 04:12:57 AM 36.3540 131.4660 117° Southeast 534 615 41,000  Level FlightAware ADS-B
Sun 04:13:37 AM 36.3030 131.5700 121° Southeast 534 615 41,000  Level FlightAware ADS-B
Sun 04:14:22 AM 36.2440 131.6870 122° Southeast 530 610 41,000 -424 Level FlightAware ADS-B
Sun 04:15:02 AM 36.1950 131.7920 120° Southeast 523 602 40,400 -988 Descending FlightAware ADS-B
Sun 04:15:47 AM 36.1440 131.9080 119° Southeast 516 594 39,600 -1,059 Descending FlightAware ADS-B
Sun 04:16:27 AM 36.0970 132.0130 119° Southeast 516 594 38,900 -988 Descending FlightAware ADS-B
Sun 04:17:12 AM 36.0450 132.1300 119° Southeast 510 587 38,200 -918 Descending FlightAware ADS-B
Sun 04:17:52 AM 36.0030 132.2330 117° Southeast 509 586 37,600 -988 Descending FlightAware ADS-B
Sun 04:18:37 AM 35.9650 132.3540 111° Southeast 505 581 36,800 -988 Descending FlightAware ADS-B
Sun 04:19:17 AM 35.9300 132.4620 112° Southeast 502 578 36,200 -975 Descending FlightAware ADS-B
Sun 04:19:57 AM 35.8950 132.5680 112° Southeast 494 568 35,500 -988 Descending FlightAware ADS-B
Sun 04:20:42 AM 35.8560 132.6850 112° Southeast 491 565 34,800 -988 Descending FlightAware ADS-B
Sun 04:21:22 AM 35.8190 132.7870 114° Southeast 480 552 34,100 -1,059 Descending FlightAware ADS-B
Sun 04:22:07 AM 35.7590 132.8810 128° Southeast 452 520 33,300 -1,694 Descending FlightAware ADS-B
Sun 04:22:47 AM 35.7050 132.9600 130° Southeast 459 528 31,700 -2,625 Descending FlightAware ADS-B
Sun 04:23:27 AM 35.6480 133.0430 130° Southeast 476 548 29,800 -3,176 Descending FlightAware ADS-B
Sun 04:24:12 AM 35.5850 133.1350 130° Southeast 493 567 27,200 -3,247 Descending FlightAware ADS-B
Sun 04:24:52 AM 35.5240 133.2220 131° Southeast 495 570 25,200 -2,080 Descending FlightAware ADS-B
Sun 04:25:27 AM 35.4730 133.2950 131° Southeast 476 548 24,600 -1,059 Descending FlightAware ADS-B
Sun 04:26:17 AM 35.4020 133.3980 130° Southeast 452 520 23,700 -1,000 Descending FlightAware ADS-B
Sun 04:26:57 AM 35.3510 133.4710 131° Southeast 428 493 23,100 -988 Descending FlightAware ADS-B
Sun 04:27:42 AM 35.2920 133.5560 130° Southeast 426 490 22,300 -975 Descending FlightAware ADS-B
Sun 04:28:17 AM 35.2520 133.6130 131° Southeast 428 493 21,800 -988 Descending FlightAware ADS-B
Sun 04:29:07 AM 35.1860 133.7070 131° Southeast 424 488 20,900 -1,067 Descending FlightAware ADS-B
Sun 04:29:47 AM 35.1340 133.7810 131° Southeast 421 484 20,200 -1,350 Descending FlightAware ADS-B
Sun 04:30:27 AM 35.0820 133.8540 131° Southeast 409 471 19,100 -1,575 Descending FlightAware ADS-B
Sun 04:31:07 AM 35.0350 133.9210 131° Southeast 404 465 18,100 -1,553 Descending FlightAware ADS-B
Sun 04:31:52 AM 34.9770 134.0020 131° Southeast 398 458 16,900 -1,600 Descending FlightAware ADS-B
Sun 04:32:22 AM 34.9390 134.0500 134° Southeast 394 453 16,100 -1,200 Descending FlightAware ADS-B
Sun 04:32:37 AM 34.9150 134.0630 156° South 367 422 16,000 -109 Descending FlightAware ADS-B
Sun 04:33:17 AM 34.8470 134.0760 171° South 358 412 16,000  Level FlightAware ADS-B
Sun 04:33:57 AM 34.7800 134.0880 172° South 360 414 16,000 -71 Level FlightAware ADS-B
Sun 04:34:42 AM 34.7060 134.1080 167° South 376 433 15,900 -706 Descending FlightAware ADS-B
Sun 04:35:22 AM 34.6450 134.1500 150° Southeast 373 429 15,000 -1,412 Descending FlightAware ADS-B
Sun 04:36:07 AM 34.5780 134.1960 151° Southeast 355 409 13,900 -1,412 Descending FlightAware ADS-B
Sun 04:36:47 AM 34.5220 134.2380 148° Southeast 351 404 13,000 -1,425 Descending FlightAware ADS-B
Sun 04:37:27 AM 34.4770 134.2970 133° Southeast 346 398 12,000 -1,482 Descending FlightAware ADS-B
Sun 04:38:12 AM 34.4290 134.3600 133° Southeast 340 391 10,900 -1,520 Descending FlightAware ADS-B
Sun 04:38:42 AM 34.3970 134.4020 133° Southeast 349 402 10,100 -943 Descending FlightAware ADS-B
Sun 04:39:22 AM 34.3540 134.4560 134° Southeast 322 371 9,800 -646 Descending FlightAware ADS-B
Sun 04:39:47 AM 34.3300 134.4920 129° Southeast 310 357 9,400 -1,050 Descending FlightAware ADS-B
Sun 04:40:02 AM 34.3250 134.5170 104° East 303 349 9,100 -1,200 Descending FlightAware ADS-B
Sun 04:40:32 AM 34.3210 134.5660 96° East 301 346 8,500 -1,200 Descending FlightAware ADS-B
Sun 04:40:57 AM 34.3180 134.6030 96° East 299 344 8,000 -1,200 Descending FlightAware ADS-B
Sun 04:41:17 AM 34.3150 134.6400 96° East 295 339 7,600 -1,333 Descending FlightAware ADS-B
Sun 04:41:42 AM 34.3300 134.6780 64° Northeast 280 322 7,000 -933 Descending FlightAware ADS-B
Sun 04:42:02 AM 34.3440 134.7040 57° Northeast 281 323 6,900 -300 Descending FlightAware ADS-B
Sun 04:42:22 AM 34.3570 134.7290 58° Northeast 276 318 6,800 -120 Descending FlightAware ADS-B
Sun 04:42:52 AM 34.3780 134.7700 58° Northeast 277 319 6,800  Level FlightAware ADS-B
Sun 04:43:17 AM 34.3960 134.8030 57° Northeast 276 318 6,800 -436 Level FlightAware ADS-B
Sun 04:43:47 AM 34.4170 134.8410 56° Northeast 276 318 6,400 -700 Descending FlightAware ADS-B
Sun 04:44:17 AM 34.4370 134.8800 58° Northeast 268 308 6,100 -545 Descending FlightAware ADS-B
Sun 04:44:42 AM 34.4540 134.9130 58° Northeast 271 312 5,900 -450 Descending FlightAware ADS-B
Sun 04:44:57 AM 34.4650 134.9330 56° Northeast 271 312 5,800 -450 Descending FlightAware ADS-B
Sun 04:45:22 AM 34.4810 134.9640 58° Northeast 271 312 5,600 -545 Descending FlightAware ADS-B
Sun 04:45:52 AM 34.5010 135.0020 57° Northeast 257 296 5,300 -600 Descending FlightAware ADS-B
Sun 04:46:22 AM 34.5200 135.0370 57° Northeast 248 285 5,000 -545 Descending FlightAware ADS-B
Sun 04:46:47 AM 34.5360 135.0680 58° Northeast 239 275 4,800 -436 Descending FlightAware ADS-B
Sun 04:47:17 AM 34.5530 135.1010 58° Northeast 222 255 4,600 -300 Descending FlightAware ADS-B
Sun 04:47:47 AM 34.5680 135.1290 57° Northeast 206 237 4,500 -545 Descending FlightAware ADS-B
Sun 04:48:12 AM 34.5810 135.1550 59° Northeast 200 230 4,100 -764 Descending FlightAware ADS-B
Sun 04:48:42 AM 34.5960 135.1830 57° Northeast 196 226 3,800 -400 Descending FlightAware ADS-B
Sun 04:48:57 AM 34.6030 135.1970 59° Northeast 181 208 3,800 240 Level FlightAware ADS-B
Sun 04:49:07 AM 34.6060 135.2070 70° East 174 200 3,900 -240 Climbing FlightAware ADS-B
Sun 04:49:22 AM 34.6070 135.2210 85° East 173 199 3,700 -800 Descending FlightAware ADS-B
Sun 04:49:52 AM 34.6060 135.2500 92° East 167 192 3,300 -655 Descending FlightAware ADS-B
Sun 04:50:17 AM 34.6050 135.2740 93° East 168 193 3,100 -545 Descending FlightAware ADS-B
Sun 04:50:47 AM 34.6050 135.3020 90° East 160 184 2,800 -545 Descending FlightAware ADS-B
Sun 04:51:12 AM 34.6040 135.3240 93° East 156 180 2,600 -545 Descending FlightAware ADS-B
Sun 04:51:42 AM 34.6000 135.3460 102° East 156 180 2,300 -600 Descending FlightAware ADS-B
Sun 04:51:52 AM 34.5940 135.3520 141° Southeast 155 178 2,200 -533 Descending FlightAware ADS-B
Sun 04:52:27 AM 34.5700 135.3670 153° Southeast 153 176 1,900 -480 Descending FlightAware ADS-B
Sun 04:52:42 AM 34.5610 135.3710 160° South 152 175 1,800 -300 Descending FlightAware ADS-B
Sun 04:52:47 AM 34.5570 135.3720 168° South 152 175 1,800 -240 Level FlightAware ADS-B
Sun 04:53:07 AM 34.5430 135.3680 193° South 152 175 1,700 -720 Descending FlightAware ADS-B
Sun 04:53:37 AM 34.5230 135.3580 202° Southwest 155 178 1,200 -764 Descending FlightAware ADS-B
Sun 04:54:02 AM 34.5060 135.3500 201° Southwest 152 175 1,000 -400 Descending FlightAware ADS-B
Sun 04:54:07 AM 34.5030 135.3490 195° South 151 174 1,000 200 Level FlightAware ADS-B
Sun 04:54:32 AM 34.4910 135.3390 214° Southwest 141 162 1,100  Climbing FlightAware ADS-B
Sun 04:54:42 AM 34.4860 135.3310 233° Southwest 135 155 1,000 -150 Descending FlightAware ADS-B
Sun 04:55:12 AM 34.4760 135.3160 231° Southwest 130 150 1,000 -171 Level FlightAware ADS-B
Sun 04:55:52 AM 34.4600 135.2930 230° Southwest 129 148 800 -300 Descending FlightAware ADS-B
Sun 04:58:00 AM 34.4273 135.2441 231° Southwest  Level Estimated
Sun 04:59:00 AM 34.4273 135.2441 158° South  Level Estimated
Sun 05:00:00 AM 34.4273 135.2441 158° South  Level Estimated
Sun 05:01:00 AM 34.4273 135.2441 158° South  Level Estimated
Sun 05:02:00 AM 34.4273 135.2441 158° South  Level Estimated
Sun 05:03:00 AM 34.4273 135.2441 158° South  Level Estimated
Sun 05:04:00 AM 34.4273 135.2441 158° South  Level Estimated
Sun 05:05:00 AM 34.4273 135.2441 158° South  Level Estimated
Sun 05:06:00 AM 34.4273 135.2441 158° South  Level Estimated
Sun 05:07:00 AM 34.4273 135.2441 158° South  Level Estimated
Sun 05:08:00 AM 34.4273 135.2441 158° South  Level Estimated
Sun 05:09:00 AM 34.4273 135.2441 158° South  Level Estimated
Sun 05:10:00 AM 34.4273 135.2441 158° South  Level Estimated
Sun 05:11:00 AM 34.4273 135.2441 158° South  Level Estimated
Sun 05:12:00 AM 34.4273 135.2441 158° South  Level Estimated
Sun 05:13:00 AM 34.4273 135.2441 158° South  Level Estimated

Login

Don't have an account? Register now (free) for customized features, flight alerts, and more!